Terminal Aerodrome Forecast
Issued by NWS Buffalo, NY

Home | Current Version | Previous Version | Text Only | Print | Product List | Glossary On
Versions: 1 2 3 4 5 6 7 8 9 10 11 12 13 14 15 16 17 18 19 20 21 22 23 24 25 26 27 28
000
FTUS41 KBUF 051700
TAFART
TAF
KART 051728Z 0518/0618 34007KT P6SM SCT030 OVC250
     FM060000 26004KT P6SM SCT250
     FM060500 24003KT P6SM FEW250
     FM061200 20004KT P6SM FEW250
     FM061500 21008KT P6SM SCT025
     FM061600 22009KT P6SM SCT200=

USA.gov is the U.S. government's official web portal to all federal, state and local government web resources and services.